Terminal Aerodrome Forecast
Issued by NWS

Home | Current Version | Previous Version | Graphics & Text | Print | Product List | Glossary On
Versions: 1 2 3 4 5 6 7 8 9 10 11 12 13 14 15
133
FTUS43 KGRB 250520
TAFAUW
TAF
KAUW 250520Z 2506/2606 28005KT P6SM BKN140
     FM251600 26012G19KT P6SM SCT050 SCT250
     FM260100 28006KT P6SM SKC=

USA.gov is the U.S. government's official web portal to all federal, state and local government web resources and services.